Time,TemperatureF,DewpointF,PressureIn,WindDirection,WindDirectionDegrees,WindSpeedMPH,WindSpeedGustMPH,Humidity,HourlyPrecipIn,Conditions,Clouds,dailyrainin,SoftwareType,DateUTC
2013-01-10 00:00:00,42.4,38.5,30.05,NNW,341,0.0,0.0,86,0.00,,,0.01,Wunderground v.1.13,2013-01-10 08:00:00,
2013-01-10 00:10:00,42.2,38.3,30.05,NNW,342,0.0,0.0,86,0.00,,,0.00,Wunderground v.1.13,2013-01-10 08:10:00,
2013-01-10 00:20:00,41.9,37.7,30.05,NNW,342,0.0,0.0,85,0.00,,,0.00,Wunderground v.1.13,2013-01-10 08:20:00,
2013-01-10 00:30:00,41.6,37.4,30.05,NNW,341,0.0,0.0,85,0.00,,,0.00,Wunderground v.1.13,2013-01-10 08:30:00,
2013-01-10 00:35:00,41.5,37.3,30.05,NNW,342,0.0,0.0,85,0.00,,,0.00,Wunderground v.1.13,2013-01-10 08:35:00,
2013-01-10 00:45:00,41.2,37.0,30.05,NNW,341,0.0,0.0,85,0.00,,,0.00,Wunderground v.1.13,2013-01-10 08:45:00,
2013-01-10 00:50:00,41.0,36.8,30.05,NNW,342,0.0,0.0,85,0.00,,,0.00,Wunderground v.1.13,2013-01-10 08:50:00,
2013-01-10 01:00:00,40.7,36.5,30.05,NNW,341,0.0,0.0,85,0.00,,,0.00,Wunderground v.1.13,2013-01-10 09:00:00,
2013-01-10 01:10:00,40.4,36.2,30.05,NNW,342,0.0,0.0,85,0.00,,,0.00,Wunderground v.1.13,2013-01-10 09:10:00,
2013-01-10 01:20:00,40.1,36.0,30.05,NNW,342,0.0,0.0,85,0.00,,,0.00,Wunderground v.1.13,2013-01-10 09:20:00,
2013-01-10 01:30:00,39.9,35.8,30.05,NNW,342,0.0,0.0,85,0.00,,,0.00,Wunderground v.1.13,2013-01-10 09:30:00,
2013-01-10 01:35:00,39.8,35.7,30.05,NNW,342,0.0,0.0,85,0.00,,,0.00,Wunderground v.1.13,2013-01-10 09:35:00,
2013-01-10 01:45:00,39.6,35.5,30.06,NNW,341,0.0,0.0,85,0.00,,,0.00,Wunderground v.1.13,2013-01-10 09:45:00,
2013-01-10 01:55:00,39.5,35.4,30.06,NNW,341,0.0,0.0,85,0.00,,,0.00,Wunderground v.1.13,2013-01-10 09:55:00,
2013-01-10 02:00:00,39.4,35.3,30.06,NNW,342,0.0,0.0,85,0.00,,,0.00,Wunderground v.1.13,2013-01-10 10:00:00,
2013-01-10 02:10:00,39.2,35.1,30.06,NNW,342,0.0,0.0,85,0.00,,,0.00,Wunderground v.1.13,2013-01-10 10:10:00,
2013-01-10 02:20:00,39.1,35.0,30.06,NNW,341,0.0,0.0,85,0.00,,,0.00,Wunderground v.1.13,2013-01-10 10:20:00,
2013-01-10 02:25:00,39.1,35.0,30.06,NNW,342,0.0,0.0,85,0.00,,,0.00,Wunderground v.1.13,2013-01-10 10:25:00,
2013-01-10 02:35:00,38.9,34.8,30.06,NNW,342,0.0,0.0,85,0.00,,,0.00,Wunderground v.1.13,2013-01-10 10:35:00,
2013-01-10 02:45:00,38.8,34.7,30.06,NNW,342,0.0,0.0,85,0.00,,,0.00,Wunderground v.1.13,2013-01-10 10:45:00,
2013-01-10 02:50:00,38.7,34.6,30.06,NNW,341,0.0,0.0,85,0.00,,,0.00,Wunderground v.1.13,2013-01-10 10:50:00,
2013-01-10 03:00:00,38.5,34.4,30.06,NNW,342,0.0,0.0,85,0.00,,,0.00,Wunderground v.1.13,2013-01-10 11:00:00,
2013-01-10 03:10:00,38.4,34.3,30.06,NNW,342,0.0,0.0,85,0.00,,,0.00,Wunderground v.1.13,2013-01-10 11:10:00,
2013-01-10 03:15:00,38.3,34.2,30.06,NNW,342,0.0,0.0,85,0.00,,,0.00,Wunderground v.1.13,2013-01-10 11:15:00,
2013-01-10 03:25:00,38.1,34.3,30.06,NNW,342,0.0,0.0,86,0.00,,,0.00,Wunderground v.1.13,2013-01-10 11:25:00,
2013-01-10 03:30:00,38.0,33.9,30.06,NNW,342,0.0,0.0,85,0.00,,,0.00,Wunderground v.1.13,2013-01-10 11:30:00,
2013-01-10 03:40:00,37.9,33.8,30.06,NNW,342,0.0,0.0,85,0.00,,,0.00,Wunderground v.1.13,2013-01-10 11:40:00,
2013-01-10 03:50:00,37.9,34.1,30.06,NNW,341,0.0,0.0,86,0.00,,,0.00,Wunderground v.1.13,2013-01-10 11:50:00,
2013-01-10 04:00:00,38.0,34.2,30.06,NNW,342,0.0,0.0,86,0.00,,,0.00,Wunderground v.1.13,2013-01-10 12:00:00,
2013-01-10 04:10:00,38.0,34.2,30.06,NNW,341,0.0,0.0,86,0.00,,,0.00,Wunderground v.1.13,2013-01-10 12:10:00,
2013-01-10 04:15:00,38.1,34.3,30.05,NNW,342,0.0,0.0,86,0.00,,,0.00,Wunderground v.1.13,2013-01-10 12:15:00,
2013-01-10 04:20:00,38.2,34.4,30.05,NNW,342,0.0,0.0,86,0.00,,,0.00,Wunderground v.1.13,2013-01-10 12:20:00,
2013-01-10 04:30:00,38.3,34.5,30.05,NNW,342,0.0,0.0,86,0.00,,,0.00,Wunderground v.1.13,2013-01-10 12:30:00,
2013-01-10 04:40:00,38.4,34.6,30.05,NNW,341,0.0,0.0,86,0.00,,,0.00,Wunderground v.1.13,2013-01-10 12:40:00,
2013-01-10 04:50:00,38.4,34.6,30.05,NNW,342,0.0,0.0,86,0.00,,,0.00,Wunderground v.1.13,2013-01-10 12:50:00,
2013-01-10 04:55:00,38.5,34.7,30.05,NNW,341,0.0,0.0,86,0.00,,,0.00,Wunderground v.1.13,2013-01-10 12:55:00,
2013-01-10 05:05:00,38.5,34.7,30.05,NNW,342,0.0,0.0,86,0.00,,,0.00,Wunderground v.1.13,2013-01-10 13:05:00,
2013-01-10 05:10:00,38.5,34.7,30.05,NNW,341,0.0,0.0,86,0.00,,,0.00,Wunderground v.1.13,2013-01-10 13:10:00,
2013-01-10 05:20:00,38.5,34.7,30.05,NNW,342,0.0,0.0,86,0.00,,,0.00,Wunderground v.1.13,2013-01-10 13:20:00,
2013-01-10 05:30:00,38.4,34.6,30.06,NNW,341,0.0,0.0,86,0.00,,,0.00,Wunderground v.1.13,2013-01-10 13:30:00,
2013-01-10 05:40:00,38.4,34.6,30.06,NNW,342,0.0,0.0,86,0.00,,,0.00,Wunderground v.1.13,2013-01-10 13:40:00,
2013-01-10 05:45:00,38.4,34.6,30.06,NNW,341,0.0,0.0,86,0.00,,,0.00,Wunderground v.1.13,2013-01-10 13:45:00,
2013-01-10 05:55:00,38.3,34.5,30.06,NNW,341,0.0,0.0,86,0.00,,,0.00,Wunderground v.1.13,2013-01-10 13:55:00,
2013-01-10 06:00:00,38.3,34.5,30.06,NNW,342,0.0,0.0,86,0.00,,,0.00,Wunderground v.1.13,2013-01-10 14:00:00,
2013-01-10 06:10:00,38.3,34.5,30.06,NNW,342,0.0,0.0,86,0.00,,,0.00,Wunderground v.1.13,2013-01-10 14:10:00,
2013-01-10 06:20:00,38.3,34.5,30.06,NNW,341,0.0,0.0,86,0.00,,,0.00,Wunderground v.1.13,2013-01-10 14:20:00,
2013-01-10 06:30:00,38.2,34.4,30.07,NNW,341,0.0,0.0,86,0.00,,,0.00,Wunderground v.1.13,2013-01-10 14:30:00,
2013-01-10 06:35:00,38.2,34.4,30.06,NNW,342,0.0,0.0,86,0.00,,,0.00,Wunderground v.1.13,2013-01-10 14:35:00,
2013-01-10 06:45:00,38.2,34.4,30.06,NNW,342,0.0,0.0,86,0.00,,,0.00,Wunderground v.1.13,2013-01-10 14:45:00,
2013-01-10 06:50:00,38.2,34.4,30.07,NNW,342,0.0,0.0,86,0.00,,,0.00,Wunderground v.1.13,2013-01-10 14:50:00,
2013-01-10 07:00:00,38.2,34.4,30.07,NNW,342,0.0,0.0,86,0.00,,,0.00,Wunderground v.1.13,2013-01-10 15:00:00,
2013-01-10 07:10:00,38.1,34.3,30.07,NNW,342,0.0,0.0,86,0.00,,,0.00,Wunderground v.1.13,2013-01-10 15:10:00,
2013-01-10 07:20:00,38.0,34.2,30.07,NNW,341,0.0,0.0,86,0.00,,,0.00,Wunderground v.1.13,2013-01-10 15:20:00,
2013-01-10 07:30:00,38.0,34.2,30.07,NNW,342,0.0,0.0,86,0.00,,,0.00,Wunderground v.1.13,2013-01-10 15:30:00,
2013-01-10 07:35:00,37.9,34.1,30.07,NNW,341,0.0,0.0,86,0.00,,,0.00,Wunderground v.1.13,2013-01-10 15:35:00,
2013-01-10 07:40:00,37.9,34.1,30.07,NNW,342,0.0,0.0,86,0.00,,,0.00,Wunderground v.1.13,2013-01-10 15:40:00,
2013-01-10 07:50:00,37.8,34.0,30.07,NNW,341,0.0,0.0,86,0.00,,,0.00,Wunderground v.1.13,2013-01-10 15:50:00,
2013-01-10 08:00:00,37.8,34.0,30.07,NNW,342,0.0,0.0,86,0.00,,,0.00,Wunderground v.1.13,2013-01-10 16:00:00,
2013-01-10 08:10:00,37.8,34.0,30.08,NNW,341,0.0,0.0,86,0.00,,,0.00,Wunderground v.1.13,2013-01-10 16:10:00,
2013-01-10 08:15:00,37.8,34.0,30.08,NNW,342,0.0,0.0,86,0.00,,,0.00,Wunderground v.1.13,2013-01-10 16:15:00,
2013-01-10 08:20:00,37.8,34.0,30.08,NNW,341,0.0,0.0,86,0.00,,,0.00,Wunderground v.1.13,2013-01-10 16:20:00,
2013-01-10 08:30:00,37.8,34.0,30.08,NNW,342,0.0,0.0,86,0.00,,,0.00,Wunderground v.1.13,2013-01-10 16:30:00,
2013-01-10 08:40:00,37.8,34.0,30.08,NNW,342,0.0,0.0,86,0.00,,,0.00,Wunderground v.1.13,2013-01-10 16:40:00,
2013-01-10 08:50:00,37.9,34.4,30.08,NNW,342,0.0,0.0,87,0.00,,,0.00,Wunderground v.1.13,2013-01-10 16:50:00,
2013-01-10 08:55:00,38.0,34.5,30.08,NNW,342,0.0,0.0,87,0.00,,,0.00,Wunderground v.1.13,2013-01-10 16:55:00,
2013-01-10 09:05:00,38.5,35.0,30.08,NW,317,0.0,0.0,87,0.00,,,0.00,Wunderground v.1.13,2013-01-10 17:05:00,
2013-01-10 09:15:00,39.2,35.9,30.07,NNE,17,0.0,0.0,88,0.00,,,0.00,Wunderground v.1.13,2013-01-10 17:15:00,
2013-01-10 09:20:00,40.1,36.8,30.08,NNE,23,0.0,1.0,88,0.00,,,0.00,Wunderground v.1.13,2013-01-10 17:20:00,
2013-01-10 09:25:00,40.8,37.5,30.08,ENE,68,0.0,1.0,88,0.00,,,0.00,Wunderground v.1.13,2013-01-10 17:25:00,
2013-01-10 09:30:00,40.8,37.5,30.08,ENE,68,0.0,1.0,88,0.00,,,0.00,Wunderground v.1.13,2013-01-10 17:30:00,
2013-01-10 09:35:00,41.5,38.2,30.08,WSW,248,0.0,1.0,88,0.00,,,0.00,Wunderground v.1.13,2013-01-10 17:35:00,
2013-01-10 09:40:00,41.5,38.2,30.08,WSW,248,0.0,1.0,88,0.00,,,0.00,Wunderground v.1.13,2013-01-10 17:40:00,
2013-01-10 09:45:00,42.0,38.7,30.08,WNW,293,0.0,1.0,88,0.00,,,0.00,Wunderground v.1.13,2013-01-10 17:45:00,
2013-01-10 09:50:00,42.0,38.7,30.08,WNW,293,0.0,1.0,88,0.00,,,0.00,Wunderground v.1.13,2013-01-10 17:50:00,
2013-01-10 09:55:00,42.5,39.2,30.08,WNW,293,0.0,2.0,88,0.00,,,0.00,Wunderground v.1.13,2013-01-10 17:55:00,
2013-01-10 10:00:00,42.5,39.2,30.08,WNW,293,0.0,2.0,88,0.00,,,0.00,Wunderground v.1.13,2013-01-10 18:00:00,
2013-01-10 10:05:00,42.9,39.6,30.08,NW,315,0.0,2.0,88,0.00,,,0.00,Wunderground v.1.13,2013-01-10 18:05:00,
2013-01-10 10:10:00,42.9,39.6,30.08,NW,315,0.0,2.0,88,0.00,,,0.00,Wunderground v.1.13,2013-01-10 18:10:00,
2013-01-10 10:15:00,43.5,39.9,30.08,NW,315,0.0,1.0,87,0.00,,,0.00,Wunderground v.1.13,2013-01-10 18:15:00,
2013-01-10 10:20:00,43.5,39.9,30.08,NW,315,0.0,1.0,87,0.00,,,0.00,Wunderground v.1.13,2013-01-10 18:20:00,
2013-01-10 10:25:00,44.0,40.1,30.08,NNE,23,0.0,1.0,86,0.00,,,0.00,Wunderground v.1.13,2013-01-10 18:25:00,
2013-01-10 10:30:00,44.0,40.1,30.08,NNE,23,0.0,1.0,86,0.00,,,0.00,Wunderground v.1.13,2013-01-10 18:30:00,
2013-01-10 10:35:00,44.4,40.5,30.08,NNE,23,0.0,1.0,86,0.00,,,0.00,Wunderground v.1.13,2013-01-10 18:35:00,
2013-01-10 10:40:00,44.4,40.5,30.08,NNE,23,0.0,1.0,86,0.00,,,0.00,Wunderground v.1.13,2013-01-10 18:40:00,
2013-01-10 10:45:00,44.8,40.6,30.07,West,270,0.0,2.0,85,0.00,,,0.00,Wunderground v.1.13,2013-01-10 18:45:00,
2013-01-10 10:50:00,44.8,40.6,30.07,West,270,0.0,2.0,85,0.00,,,0.00,Wunderground v.1.13,2013-01-10 18:50:00,
2013-01-10 10:55:00,45.0,40.5,30.07,West,270,0.0,1.0,84,0.00,,,0.00,Wunderground v.1.13,2013-01-10 18:55:00,
2013-01-10 11:00:00,45.0,40.5,30.07,West,270,0.0,1.0,84,0.00,,,0.00,Wunderground v.1.13,2013-01-10 19:00:00,
2013-01-10 11:05:00,45.2,40.3,30.07,WNW,293,0.0,4.0,83,0.00,,,0.00,Wunderground v.1.13,2013-01-10 19:05:00,
2013-01-10 11:15:00,45.4,40.5,30.07,NNW,338,0.0,2.0,83,0.00,,,0.00,Wunderground v.1.13,2013-01-10 19:15:00,
2013-01-10 11:20:00,45.4,40.5,30.07,NNW,338,0.0,2.0,83,0.00,,,0.00,Wunderground v.1.13,2013-01-10 19:20:00,
2013-01-10 11:25:00,45.6,40.1,30.06,NW,315,0.0,4.0,81,0.00,,,0.00,Wunderground v.1.13,2013-01-10 19:25:00,
2013-01-10 11:30:00,45.6,40.1,30.06,NW,315,0.0,4.0,81,0.00,,,0.00,Wunderground v.1.13,2013-01-10 19:30:00,
2013-01-10 11:35:00,45.9,39.8,30.06,West,270,0.0,2.0,79,0.00,,,0.00,Wunderground v.1.13,2013-01-10 19:35:00,
2013-01-10 11:40:00,45.9,39.8,30.06,West,270,0.0,2.0,79,0.00,,,0.00,Wunderground v.1.13,2013-01-10 19:40:00,
2013-01-10 11:45:00,46.1,39.6,30.06,West,270,0.0,2.0,78,0.00,,,0.00,Wunderground v.1.13,2013-01-10 19:45:00,
2013-01-10 11:50:00,46.1,39.6,30.06,West,270,0.0,2.0,78,0.00,,,0.00,Wunderground v.1.13,2013-01-10 19:50:00,
2013-01-10 11:55:00,46.4,39.2,30.05,West,270,0.0,4.0,76,0.00,,,0.00,Wunderground v.1.13,2013-01-10 19:55:00,
2013-01-10 12:00:00,46.4,39.2,30.05,West,270,0.0,4.0,76,0.00,,,0.00,Wunderground v.1.13,2013-01-10 20:00:00,
2013-01-10 12:05:00,46.7,39.2,30.05,WNW,293,0.0,2.0,75,0.00,,,0.00,Wunderground v.1.13,2013-01-10 20:05:00,
2013-01-10 12:10:00,46.7,39.2,30.05,WNW,293,0.0,2.0,75,0.00,,,0.00,Wunderground v.1.13,2013-01-10 20:10:00,
2013-01-10 12:15:00,46.9,38.7,30.05,SSW,203,0.0,3.0,73,0.00,,,0.00,Wunderground v.1.13,2013-01-10 20:15:00,
2013-01-10 12:20:00,46.9,38.7,30.05,SSW,203,0.0,3.0,73,0.00,,,0.00,Wunderground v.1.13,2013-01-10 20:20:00,
2013-01-10 12:25:00,47.2,38.6,30.05,West,270,0.0,1.0,72,0.00,,,0.00,Wunderground v.1.13,2013-01-10 20:25:00,
2013-01-10 12:30:00,47.2,38.6,30.05,West,270,0.0,1.0,72,0.00,,,0.00,Wunderground v.1.13,2013-01-10 20:30:00,
2013-01-10 12:35:00,47.4,38.1,30.05,West,270,0.0,2.0,70,0.00,,,0.00,Wunderground v.1.13,2013-01-10 20:35:00,
2013-01-10 12:40:00,47.2,38.6,30.05,West,279,0.0,0.0,72,0.00,,,0.00,Wunderground v.1.13,2013-01-10 20:40:00,
2013-01-10 12:50:00,47.4,38.1,30.05,West,277,0.0,0.0,70,0.00,,,0.00,Wunderground v.1.13,2013-01-10 20:50:00,
2013-01-10 13:00:00,48.7,38.6,30.04,NNW,341,0.0,0.0,68,0.00,,,0.00,Wunderground v.1.13,2013-01-10 21:00:00,
2013-01-10 13:10:00,49.3,38.4,30.04,WNW,289,0.0,1.0,66,0.00,,,0.00,Wunderground v.1.13,2013-01-10 21:10:00,
2013-01-10 13:20:00,49.5,37.8,30.04,NNW,331,0.0,0.0,64,0.00,,,0.00,Wunderground v.1.13,2013-01-10 21:20:00,
2013-01-10 13:25:00,49.5,37.8,30.04,West,261,0.0,0.0,64,0.00,,,0.00,Wunderground v.1.13,2013-01-10 21:25:00,
2013-01-10 13:35:00,49.4,37.3,30.04,West,278,0.0,0.0,63,0.00,,,0.00,Wunderground v.1.13,2013-01-10 21:35:00,
2013-01-10 13:45:00,49.3,37.6,30.04,NNW,327,0.0,0.0,64,0.00,,,0.00,Wunderground v.1.13,2013-01-10 21:45:00,
2013-01-10 13:50:00,49.4,37.7,30.04,NW,307,0.0,0.0,64,0.00,,,0.00,Wunderground v.1.13,2013-01-10 21:50:00,
2013-01-10 14:00:00,49.5,37.4,30.04,WNW,292,0.0,0.0,63,0.00,,,0.00,Wunderground v.1.13,2013-01-10 22:00:00,
2013-01-10 14:10:00,50.2,38.9,30.05,West,267,0.0,0.0,65,0.00,,,0.00,Wunderground v.1.13,2013-01-10 22:10:00,
2013-01-10 14:20:00,50.5,38.4,30.05,NW,314,0.0,0.0,63,0.00,,,0.00,Wunderground v.1.13,2013-01-10 22:20:00,
2013-01-10 14:25:00,50.5,38.4,30.05,NW,309,0.0,0.0,63,0.00,,,0.00,Wunderground v.1.13,2013-01-10 22:25:00,
2013-01-10 14:35:00,50.6,38.5,30.05,NNW,348,0.0,0.0,63,0.00,,,0.00,Wunderground v.1.13,2013-01-10 22:35:00,
2013-01-10 14:40:00,50.6,38.5,30.05,NW,309,0.0,0.0,63,0.00,,,0.00,Wunderground v.1.13,2013-01-10 22:40:00,
2013-01-10 14:50:00,50.4,37.9,30.05,West,259,0.0,0.0,62,0.00,,,0.00,Wunderground v.1.13,2013-01-10 22:50:00,
2013-01-10 15:00:00,50.1,37.6,30.05,WSW,248,0.0,0.0,62,0.00,,,0.00,Wunderground v.1.13,2013-01-10 23:00:00,
2013-01-10 15:10:00,50.1,38.0,30.05,WSW,247,0.0,0.0,63,0.00,,,0.00,Wunderground v.1.13,2013-01-10 23:10:00,
2013-01-10 15:20:00,50.1,37.6,30.05,WSW,240,0.0,1.0,62,0.00,,,0.00,Wunderground v.1.13,2013-01-10 23:20:00,
2013-01-10 15:25:00,50.2,38.1,30.05,WSW,253,0.0,0.0,63,0.00,,,0.00,Wunderground v.1.13,2013-01-10 23:25:00,
2013-01-10 15:35:00,50.4,37.4,30.05,WNW,286,0.0,0.0,61,0.00,,,0.00,Wunderground v.1.13,2013-01-10 23:35:00,
2013-01-10 15:45:00,50.6,38.9,30.05,WNW,290,0.0,0.0,64,0.00,,,0.00,Wunderground v.1.13,2013-01-10 23:45:00,
2013-01-10 15:50:00,50.6,38.5,30.05,NW,319,0.0,0.0,63,0.00,,,0.00,Wunderground v.1.13,2013-01-10 23:50:00,
2013-01-10 16:00:00,50.1,38.0,30.06,NW,319,0.0,0.0,63,0.00,,,0.00,Wunderground v.1.13,2013-01-11 00:00:00,
2013-01-10 16:10:00,50.0,37.9,30.06,West,259,0.0,0.0,63,0.00,,,0.00,Wunderground v.1.13,2013-01-11 00:10:00,
2013-01-10 16:20:00,49.9,37.8,30.06,WNW,291,0.0,0.0,63,0.00,,,0.00,Wunderground v.1.13,2013-01-11 00:20:00,
2013-01-10 16:25:00,49.9,37.8,30.06,WNW,291,0.0,0.0,63,0.00,,,0.00,Wunderground v.1.13,2013-01-11 00:25:00,
2013-01-10 16:35:00,49.6,37.5,30.07,WNW,291,0.0,0.0,63,0.00,,,0.00,Wunderground v.1.13,2013-01-11 00:35:00,
2013-01-10 16:40:00,49.5,37.4,30.07,WNW,291,0.0,0.0,63,0.00,,,0.00,Wunderground v.1.13,2013-01-11 00:40:00,
2013-01-10 16:50:00,49.2,37.1,30.07,WNW,300,0.0,0.0,63,0.00,,,0.00,Wunderground v.1.13,2013-01-11 00:50:00,
2013-01-10 17:00:00,48.7,37.1,30.07,WNW,300,0.0,0.0,64,0.00,,,0.00,Wunderground v.1.13,2013-01-11 01:00:00,
2013-01-10 17:10:00,48.3,36.7,30.07,WNW,300,0.0,0.0,64,0.00,,,0.00,Wunderground v.1.13,2013-01-11 01:10:00,
2013-01-10 17:20:00,47.9,36.3,30.07,WNW,300,0.0,0.0,64,0.00,,,0.00,Wunderground v.1.13,2013-01-11 01:20:00,
2013-01-10 17:25:00,47.6,36.4,30.07,WNW,300,0.0,0.0,65,0.00,,,0.00,Wunderground v.1.13,2013-01-11 01:25:00,
2013-01-10 17:30:00,47.4,36.2,30.07,WNW,300,0.0,0.0,65,0.00,,,0.00,Wunderground v.1.13,2013-01-11 01:30:00,
2013-01-10 17:40:00,47.0,36.2,30.08,NW,309,0.0,0.0,66,0.00,,,0.00,Wunderground v.1.13,2013-01-11 01:40:00,
2013-01-10 17:50:00,46.6,35.8,30.08,NW,309,0.0,0.0,66,0.00,,,0.00,Wunderground v.1.13,2013-01-11 01:50:00,
2013-01-10 18:05:00,46.2,35.8,30.09,NW,309,0.0,0.0,67,0.00,,,0.00,Wunderground v.1.13,2013-01-11 02:05:00,
2013-01-10 18:10:00,46.0,35.7,30.09,NW,309,0.0,0.0,67,0.00,,,0.00,Wunderground v.1.13,2013-01-11 02:10:00,
2013-01-10 18:15:00,45.9,35.9,30.09,NW,310,0.0,0.0,68,0.00,,,0.00,Wunderground v.1.13,2013-01-11 02:15:00,
2013-01-10 18:25:00,45.6,35.6,30.10,NW,310,0.0,0.0,68,0.00,,,0.00,Wunderground v.1.13,2013-01-11 02:25:00,
2013-01-10 18:30:00,45.5,35.9,30.10,NW,311,0.0,0.0,69,0.00,,,0.00,Wunderground v.1.13,2013-01-11 02:30:00,
2013-01-10 18:40:00,45.3,35.7,30.10,NW,310,0.0,0.0,69,0.00,,,0.00,Wunderground v.1.13,2013-01-11 02:40:00,
2013-01-10 18:50:00,45.2,36.0,30.10,NW,310,0.0,0.0,70,0.00,,,0.00,Wunderground v.1.13,2013-01-11 02:50:00,
2013-01-10 19:00:00,45.0,35.8,30.10,South,174,0.0,0.0,70,0.00,,,0.00,Wunderground v.1.13,2013-01-11 03:00:00,
2013-01-10 19:05:00,45.0,35.8,30.11,WNW,294,0.0,0.0,70,0.00,,,0.00,Wunderground v.1.13,2013-01-11 03:05:00,
2013-01-10 19:15:00,45.0,36.2,30.11,WNW,294,0.0,0.0,71,0.00,,,0.00,Wunderground v.1.13,2013-01-11 03:15:00,
2013-01-10 19:25:00,44.9,36.1,30.11,WSW,252,0.0,0.0,71,0.00,,,0.00,Wunderground v.1.13,2013-01-11 03:25:00,
2013-01-10 19:30:00,44.8,36.0,30.11,WSW,252,0.0,0.0,71,0.00,,,0.00,Wunderground v.1.13,2013-01-11 03:30:00,
2013-01-10 19:40:00,44.7,35.9,30.11,WSW,252,0.0,0.0,71,0.00,,,0.00,Wunderground v.1.13,2013-01-11 03:40:00,
2013-01-10 19:50:00,44.6,36.1,30.11,WSW,252,0.0,0.0,72,0.00,,,0.00,Wunderground v.1.13,2013-01-11 03:50:00,
2013-01-10 20:00:00,44.5,36.0,30.12,WSW,252,0.0,0.0,72,0.00,,,0.00,Wunderground v.1.13,2013-01-11 04:00:00,
2013-01-10 20:10:00,44.3,35.8,30.12,WSW,252,0.0,0.0,72,0.00,,,0.00,Wunderground v.1.13,2013-01-11 04:10:00,
2013-01-10 20:20:00,44.2,35.7,30.12,WNW,303,0.0,0.0,72,0.00,,,0.00,Wunderground v.1.13,2013-01-11 04:20:00,
2013-01-10 20:30:00,44.1,35.6,30.12,WNW,303,0.0,0.0,72,0.00,,,0.00,Wunderground v.1.13,2013-01-11 04:30:00,
2013-01-10 20:40:00,43.9,35.8,30.12,WNW,303,0.0,0.0,73,0.00,,,0.00,Wunderground v.1.13,2013-01-11 04:40:00,
2013-01-10 20:50:00,43.8,35.7,30.13,WNW,303,0.0,0.0,73,0.00,,,0.00,Wunderground v.1.13,2013-01-11 04:50:00,
2013-01-10 21:05:00,43.5,35.4,30.13,WNW,303,0.0,0.0,73,0.00,,,0.00,Wunderground v.1.13,2013-01-11 05:05:00,
2013-01-10 21:10:00,43.4,35.3,30.13,WNW,303,0.0,0.0,73,0.00,,,0.00,Wunderground v.1.13,2013-01-11 05:10:00,
2013-01-10 21:15:00,43.3,35.2,30.13,WNW,303,0.0,0.0,73,0.00,,,0.00,Wunderground v.1.13,2013-01-11 05:15:00,
2013-01-10 21:25:00,43.1,35.0,30.14,WNW,303,0.0,0.0,73,0.00,,,0.00,Wunderground v.1.13,2013-01-11 05:25:00,
2013-01-10 21:30:00,43.0,34.9,30.14,WNW,303,0.0,0.0,73,0.00,,,0.00,Wunderground v.1.13,2013-01-11 05:30:00,
2013-01-10 21:40:00,42.9,34.8,30.14,WNW,303,0.0,0.0,73,0.00,,,0.00,Wunderground v.1.13,2013-01-11 05:40:00,
2013-01-10 21:50:00,42.8,34.7,30.14,WNW,303,0.0,0.0,73,0.00,,,0.00,Wunderground v.1.13,2013-01-11 05:50:00,
2013-01-10 22:00:00,42.6,34.5,30.14,WNW,303,0.0,0.0,73,0.00,,,0.00,Wunderground v.1.13,2013-01-11 06:00:00,
2013-01-10 22:05:00,42.6,34.9,30.14,WNW,303,0.0,0.0,74,0.00,,,0.00,Wunderground v.1.13,2013-01-11 06:05:00,
2013-01-10 22:15:00,42.4,34.4,30.15,WNW,303,0.0,0.0,73,0.00,,,0.00,Wunderground v.1.13,2013-01-11 06:15:00,
2013-01-10 22:20:00,42.4,34.4,30.15,WNW,303,0.0,0.0,73,0.00,,,0.00,Wunderground v.1.13,2013-01-11 06:20:00,
2013-01-10 22:30:00,42.2,34.5,30.15,WNW,303,0.0,0.0,74,0.00,,,0.00,Wunderground v.1.13,2013-01-11 06:30:00,
2013-01-10 22:40:00,42.1,34.4,30.15,WNW,303,0.0,0.0,74,0.00,,,0.00,Wunderground v.1.13,2013-01-11 06:40:00,
2013-01-10 22:50:00,42.0,34.3,30.15,WNW,303,0.0,0.0,74,0.00,,,0.00,Wunderground v.1.13,2013-01-11 06:50:00,
2013-01-10 22:55:00,41.9,34.2,30.15,WNW,303,0.0,0.0,74,0.00,,,0.00,Wunderground v.1.13,2013-01-11 06:55:00,
2013-01-10 23:00:00,41.9,34.2,30.15,WNW,303,0.0,0.0,74,0.00,,,0.00,Wunderground v.1.13,2013-01-11 07:00:00,
2013-01-10 23:10:00,41.7,34.0,30.15,WNW,303,0.0,0.0,74,0.00,,,0.00,Wunderground v.1.13,2013-01-11 07:10:00,
2013-01-10 23:20:00,41.5,33.8,30.15,WNW,303,0.0,0.0,74,0.00,,,0.00,Wunderground v.1.13,2013-01-11 07:20:00,
2013-01-10 23:30:00,41.3,33.6,30.15,WNW,303,0.0,0.0,74,0.00,,,0.00,Wunderground v.1.13,2013-01-11 07:30:00,
2013-01-10 23:35:00,41.1,33.4,30.16,WNW,303,0.0,0.0,74,0.00,,,0.00,Wunderground v.1.13,2013-01-11 07:35:00,
2013-01-10 23:40:00,41.0,34.7,30.16,WNW,303,0.0,0.0,78,0.00,,,0.00,Wunderground v.1.13,2013-01-11 07:40:00,
2013-01-10 23:50:00,40.7,33.1,30.16,WNW,303,0.0,0.0,74,0.00,,,0.00,Wunderground v.1.13,2013-01-11 07:50:00,